createdAt,value
2024-04-11T00:00:58.787Z,71.77
2024-04-11T00:01:58.787Z,71.56
2024-04-11T00:02:58.782Z,71.53
2024-04-11T00:03:58.790Z,71.66
2024-04-11T00:04:58.896Z,71.53
2024-04-11T00:05:58.753Z,71.62
2024-04-11T00:06:58.630Z,71.77
2024-04-11T00:07:58.618Z,71.66
2024-04-11T00:08:58.757Z,71.77
2024-04-11T00:09:58.597Z,71.97
2024-04-11T00:10:58.584Z,71.97
2024-04-11T00:11:58.661Z,71.77
2024-04-11T00:12:58.562Z,71.77
2024-04-11T00:13:58.555Z,72.28
2024-04-11T00:14:59.227Z,72.17
2024-04-11T00:15:58.610Z,72.41
2024-04-11T00:16:58.527Z,72.41
2024-04-11T00:17:58.694Z,72.41
2024-04-11T00:18:58.544Z,72.52
2024-04-11T00:19:58.496Z,72.72
2024-04-11T00:20:58.664Z,72.52
2024-04-11T00:21:58.473Z,72.61
2024-04-11T00:22:58.497Z,72.72
2024-04-11T00:23:58.501Z,72.92
2024-04-11T00:24:58.454Z,72.82
2024-04-11T00:25:58.427Z,72.75
2024-04-11T00:26:58.555Z,72.86
2024-04-11T00:27:58.419Z,72.86
2024-04-11T00:28:58.411Z,72.96
2024-04-11T00:29:58.526Z,72.75
2024-04-11T00:30:58.404Z,73.06
2024-04-11T00:31:58.368Z,72.86
2024-04-11T00:32:58.540Z,72.65
2024-04-11T00:33:58.585Z,72.44
2024-04-11T00:34:58.345Z,72.55
2024-04-11T00:35:58.447Z,72.44
2024-04-11T00:36:58.370Z,72.55
2024-04-11T00:37:58.312Z,72.34
2024-04-11T00:38:58.589Z,72.14
2024-04-11T00:39:58.325Z,71.93
2024-04-11T00:40:58.293Z,72.00
2024-04-11T00:41:58.450Z,72.11
2024-04-11T00:42:58.322Z,71.90
2024-04-11T00:43:58.252Z,71.80
2024-04-11T00:44:58.350Z,71.80
2024-04-11T00:45:58.229Z,71.69
2024-04-11T00:46:58.237Z,71.59
2024-04-11T00:47:58.354Z,71.18
2024-04-11T00:48:58.397Z,71.08
2024-04-11T00:49:58.213Z,70.77
2024-04-11T00:50:58.279Z,70.87
2024-04-11T00:51:58.171Z,71.08
2024-04-11T00:52:58.176Z,70.57
2024-04-11T00:53:58.256Z,70.64
2024-04-11T00:54:58.147Z,70.43
2024-04-11T00:55:58.161Z,70.23
2024-04-11T00:56:58.160Z,70.33
2024-04-11T00:57:58.130Z,70.23
2024-04-11T00:58:58.153Z,69.61
2024-04-11T00:59:58.167Z,69.31
2024-04-11T01:00:58.144Z,69.41
2024-04-11T01:01:58.129Z,69.31
2024-04-11T01:02:58.199Z,68.76
2024-04-11T01:03:58.314Z,68.76
2024-04-11T01:04:58.096Z,68.97
2024-04-11T01:05:58.163Z,69.17
2024-04-11T01:06:58.024Z,68.97
2024-04-11T01:07:58.067Z,68.66
2024-04-11T01:08:58.042Z,68.15
2024-04-11T01:09:58.052Z,68.25
2024-04-11T01:10:58.067Z,67.94
2024-04-11T01:11:58.067Z,67.54
2024-04-11T01:12:57.966Z,67.64
2024-04-11T01:13:57.993Z,67.64
2024-04-11T01:14:58.005Z,67.84
2024-04-11T01:15:57.940Z,68.15
2024-04-11T01:16:57.981Z,67.94
2024-04-11T01:17:58.251Z,67.84
2024-04-11T01:18:58.197Z,67.94
2024-04-11T01:19:57.915Z,68.15
2024-04-11T01:20:57.946Z,67.54
2024-04-11T01:21:57.877Z,67.43
2024-04-11T01:22:57.923Z,67.94
2024-04-11T01:23:57.940Z,67.64
2024-04-11T01:24:57.870Z,67.43
2024-04-11T01:25:57.839Z,67.67
2024-04-11T01:26:57.975Z,67.46
2024-04-11T01:27:57.846Z,67.54
2024-04-11T01:28:57.809Z,67.74
2024-04-11T01:29:57.856Z,66.72
2024-04-11T01:30:57.784Z,66.92
2024-04-11T01:31:57.820Z,67.26
2024-04-11T01:32:57.909Z,67.64
2024-04-11T01:33:57.859Z,67.02
2024-04-11T01:34:58.352Z,67.13
2024-04-11T01:35:57.856Z,67.23
2024-04-11T01:36:57.727Z,67.02
2024-04-11T01:37:57.744Z,66.72
2024-04-11T01:38:57.821Z,66.92
2024-04-11T01:39:57.696Z,66.20
2024-04-11T01:40:57.718Z,66.28
2024-04-11T01:41:57.771Z,66.31
2024-04-11T01:42:57.685Z,65.87
2024-04-11T01:43:57.689Z,65.77
2024-04-11T01:44:57.698Z,65.97
2024-04-11T01:45:57.694Z,65.56
2024-04-11T01:46:57.770Z,65.77
2024-04-11T01:47:57.697Z,65.87
2024-04-11T01:48:57.663Z,65.56
2024-04-11T01:49:57.631Z,65.25
2024-04-11T01:50:57.737Z,65.05
2024-04-11T01:51:57.572Z,65.36
2024-04-11T01:52:57.579Z,64.64
2024-04-11T01:53:57.653Z,64.13
2024-04-11T01:54:57.549Z,64.40
2024-04-11T01:55:57.541Z,64.40
2024-04-11T01:56:57.617Z,64.20
2024-04-11T01:57:57.527Z,64.00
2024-04-11T01:58:57.508Z,64.51
2024-04-11T01:59:57.631Z,64.20
2024-04-11T02:00:57.499Z,64.40
2024-04-11T02:01:57.482Z,64.20
2024-04-11T02:02:57.608Z,63.89
2024-04-11T02:03:57.566Z,63.69
2024-04-11T02:04:57.499Z,63.89
2024-04-11T02:05:57.534Z,64.00
2024-04-11T02:06:57.433Z,63.89
2024-04-11T02:07:57.429Z,64.20
2024-04-11T02:08:57.526Z,63.89
2024-04-11T02:09:57.418Z,63.79
2024-04-11T02:10:57.475Z,64.10
2024-04-11T02:11:57.718Z,63.69
2024-04-11T02:12:59.524Z,63.69
2024-04-11T02:13:57.358Z,63.69
2024-04-11T02:14:57.394Z,63.59
2024-04-11T02:15:57.345Z,63.89
2024-04-11T02:16:57.416Z,64.30
2024-04-11T02:17:57.497Z,64.20
2024-04-11T02:18:57.357Z,63.59
2024-04-11T02:19:57.296Z,63.59
2024-04-11T02:20:57.385Z,63.48
2024-04-11T02:21:57.304Z,63.48
2024-04-11T02:22:57.272Z,63.18
2024-04-11T02:23:57.318Z,63.39
2024-04-11T02:24:57.287Z,63.48
2024-04-11T02:25:57.244Z,63.39
2024-04-11T02:26:57.306Z,63.25
2024-04-11T02:27:57.279Z,63.25
2024-04-11T02:28:57.210Z,63.86
2024-04-11T02:29:57.270Z,63.25
2024-04-11T02:30:57.193Z,63.39
2024-04-11T02:31:57.215Z,63.25
2024-04-11T02:32:57.367Z,63.25
2024-04-11T02:33:57.312Z,62.95
2024-04-11T02:34:57.190Z,63.45
2024-04-11T02:35:57.205Z,63.35
2024-04-11T02:36:57.129Z,62.95
2024-04-11T02:37:57.161Z,63.04
2024-04-11T02:38:57.225Z,63.35
2024-04-11T02:39:57.106Z,63.04
2024-04-11T02:40:57.126Z,63.04
2024-04-11T02:41:57.166Z,63.15
2024-04-11T02:42:57.079Z,63.15
2024-04-11T02:43:57.107Z,63.56
2024-04-11T02:44:57.075Z,63.15
2024-04-11T02:45:57.039Z,63.45
2024-04-11T02:46:57.100Z,63.25
2024-04-11T02:47:57.236Z,63.66
2024-04-11T02:48:57.281Z,63.25
2024-04-11T02:49:57.035Z,62.84
2024-04-11T02:50:57.061Z,63.15
2024-04-11T02:51:56.991Z,63.25
2024-04-11T02:52:56.991Z,62.95
2024-04-11T02:53:57.128Z,62.95
2024-04-11T02:54:56.956Z,63.15
2024-04-11T02:55:56.939Z,63.25
2024-04-11T02:56:56.982Z,62.95
2024-04-11T02:57:56.929Z,62.74
2024-04-11T02:58:56.944Z,62.95
2024-04-11T02:59:57.021Z,63.25
2024-04-11T03:00:56.978Z,63.15
2024-04-11T03:01:56.882Z,62.95
2024-04-11T03:02:57.015Z,63.15
2024-04-11T03:03:57.021Z,62.84
2024-04-11T03:04:56.912Z,62.84
2024-04-11T03:05:56.888Z,63.04
2024-04-11T03:06:56.840Z,62.74
2024-04-11T03:07:56.828Z,62.54
2024-04-11T03:08:56.933Z,62.54
2024-04-11T03:09:56.809Z,62.54
2024-04-11T03:10:56.829Z,62.54
2024-04-11T03:11:56.942Z,62.81
2024-04-11T03:12:56.771Z,62.54
2024-04-11T03:13:56.765Z,62.54
2024-04-11T03:14:56.796Z,62.61
2024-04-11T03:15:56.759Z,62.51
2024-04-11T03:16:56.864Z,62.61
2024-04-11T03:17:56.847Z,63.04
2024-04-11T03:18:56.923Z,63.02
2024-04-11T03:19:56.710Z,62.43
2024-04-11T03:20:56.719Z,62.81
2024-04-11T03:21:56.686Z,62.40
2024-04-11T03:22:56.682Z,62.61
2024-04-11T03:23:56.808Z,62.30
2024-04-11T03:24:56.655Z,62.61
2024-04-11T03:25:56.642Z,61.90
2024-04-11T03:26:56.734Z,62.30
2024-04-11T03:27:56.624Z,62.40
2024-04-11T03:28:56.615Z,61.99
2024-04-11T03:29:56.683Z,62.10
2024-04-11T03:30:56.594Z,62.20
2024-04-11T03:31:56.604Z,61.90
2024-04-11T03:32:56.656Z,61.99
2024-04-11T03:33:56.880Z,61.90
2024-04-11T03:34:56.556Z,61.90
2024-04-11T03:35:56.598Z,61.99
2024-04-11T03:36:56.587Z,61.99
2024-04-11T03:37:56.540Z,61.69
2024-04-11T03:38:56.635Z,61.69
2024-04-11T03:39:56.506Z,61.79
2024-04-11T03:40:56.906Z,61.90
2024-04-11T03:41:56.574Z,62.30
2024-04-11T03:42:56.490Z,62.17
2024-04-11T03:43:56.876Z,61.87
2024-04-11T03:44:56.482Z,61.56
2024-04-11T03:45:56.453Z,61.76
2024-04-11T03:46:56.492Z,61.46
2024-04-11T03:47:56.648Z,61.76
2024-04-11T03:48:56.780Z,61.66
2024-04-11T03:49:56.423Z,61.87
2024-04-11T03:50:56.550Z,61.76
2024-04-11T03:51:56.427Z,61.97
2024-04-11T03:52:56.374Z,61.97
2024-04-11T03:53:56.406Z,61.76
2024-04-11T03:54:56.386Z,61.56
2024-04-11T03:55:56.348Z,61.56
2024-04-11T03:56:56.416Z,61.66
2024-04-11T03:57:56.379Z,61.56
2024-04-11T03:58:56.321Z,61.35
2024-04-11T03:59:56.305Z,61.66
2024-04-11T04:00:56.364Z,61.46
2024-04-11T04:01:56.238Z,61.66
2024-04-11T04:02:56.274Z,61.25
2024-04-11T04:03:56.485Z,61.56
2024-04-11T04:04:56.218Z,61.66
2024-04-11T04:05:56.289Z,61.97
2024-04-11T04:06:56.184Z,61.66
2024-04-11T04:07:56.193Z,61.56
2024-04-11T04:08:56.258Z,61.97
2024-04-11T04:09:56.148Z,61.56
2024-04-11T04:10:56.157Z,61.25
2024-04-11T04:11:56.263Z,61.35
2024-04-11T04:12:56.123Z,61.35
2024-04-11T04:13:56.124Z,61.35
2024-04-11T04:14:56.123Z,61.46
2024-04-11T04:15:56.154Z,61.66
2024-04-11T04:16:56.092Z,61.56
2024-04-11T04:17:56.177Z,61.46
2024-04-11T04:18:56.127Z,61.35
2024-04-11T04:19:56.075Z,61.66
2024-04-11T04:20:56.144Z,61.25
2024-04-11T04:21:56.031Z,61.35
2024-04-11T04:22:56.032Z,61.35
2024-04-11T04:23:56.110Z,61.46
2024-04-11T04:24:56.001Z,61.43
2024-04-11T04:25:55.998Z,61.15
2024-04-11T04:26:56.011Z,60.94
2024-04-11T04:27:55.968Z,61.15
2024-04-11T04:28:55.966Z,61.02
2024-04-11T04:29:56.040Z,61.32
2024-04-11T04:30:58.427Z,61.43
2024-04-11T04:31:55.932Z,61.02
2024-04-11T04:32:56.039Z,61.22
2024-04-11T04:33:56.136Z,61.22
2024-04-11T04:34:55.899Z,61.32
2024-04-11T04:35:55.977Z,61.22
2024-04-11T04:36:55.881Z,61.32
2024-04-11T04:37:55.877Z,61.12
2024-04-11T04:38:55.944Z,61.12
2024-04-11T04:39:55.853Z,61.22
2024-04-11T04:40:55.890Z,61.22
2024-04-11T04:41:55.885Z,61.22
2024-04-11T04:42:55.824Z,61.22
2024-04-11T04:43:55.814Z,61.22
2024-04-11T04:44:55.985Z,61.22
2024-04-11T04:45:55.823Z,61.22
2024-04-11T04:46:55.844Z,61.22
2024-04-11T04:47:55.934Z,61.43
2024-04-11T04:48:55.856Z,61.43
2024-04-11T04:49:55.746Z,61.32
2024-04-11T04:50:55.831Z,61.53
2024-04-11T04:51:55.803Z,61.94
2024-04-11T04:52:55.717Z,61.43
2024-04-11T04:53:55.842Z,61.53
2024-04-11T04:54:55.699Z,61.43
2024-04-11T04:55:55.699Z,61.43
2024-04-11T04:56:55.745Z,61.63
2024-04-11T04:57:55.669Z,61.53
2024-04-11T04:58:55.685Z,61.71
2024-04-11T04:59:55.698Z,61.71
2024-04-11T05:00:55.729Z,62.24
2024-04-11T05:01:55.633Z,62.01
2024-04-11T05:02:55.694Z,61.80
2024-04-11T05:03:55.800Z,61.91
2024-04-11T05:04:55.663Z,62.11
2024-04-11T05:05:55.717Z,62.32
2024-04-11T05:06:55.583Z,62.32
2024-04-11T05:07:55.655Z,62.32
2024-04-11T05:08:55.980Z,62.32
2024-04-11T05:09:55.568Z,62.42
2024-04-11T05:10:55.591Z,62.62
2024-04-11T05:11:55.678Z,62.52
2024-04-11T05:12:55.543Z,62.52
2024-04-11T05:13:55.525Z,63.13
2024-04-11T05:14:55.705Z,62.93
2024-04-11T05:15:55.659Z,62.65
2024-04-11T05:16:55.566Z,62.62
2024-04-11T05:17:55.634Z,62.82
2024-04-11T05:18:55.848Z,62.82
2024-04-11T05:19:55.459Z,63.13
2024-04-11T05:20:55.501Z,63.23
2024-04-11T05:21:55.447Z,62.73
2024-04-11T05:22:55.505Z,63.13
2024-04-11T05:23:56.072Z,63.03
2024-04-11T05:24:55.419Z,63.54
2024-04-11T05:25:55.400Z,63.34
2024-04-11T05:26:55.521Z,63.23
2024-04-11T05:27:55.405Z,63.54
2024-04-11T05:28:56.477Z,63.75
2024-04-11T05:29:55.471Z,63.23
2024-04-11T05:30:55.372Z,63.23
2024-04-11T05:31:55.355Z,63.64
2024-04-11T05:32:55.490Z,63.64
2024-04-11T05:33:55.682Z,63.64
2024-04-11T05:34:55.361Z,63.54
2024-04-11T05:35:55.385Z,63.95
2024-04-11T05:36:55.306Z,65.37
2024-04-11T05:37:55.303Z,67.72
2024-04-11T05:38:55.335Z,65.78
2024-04-11T05:39:55.265Z,66.33
2024-04-11T05:40:55.260Z,66.33
2024-04-11T05:41:55.338Z,67.24
2024-04-11T05:42:55.231Z,66.94
2024-04-11T05:43:55.224Z,66.42
2024-04-11T05:44:55.384Z,66.22
2024-04-11T05:45:55.198Z,66.42
2024-04-11T05:46:55.225Z,66.02
2024-04-11T05:47:55.338Z,66.74
2024-04-11T05:48:55.338Z,66.33
2024-04-11T05:49:55.157Z,66.02
2024-04-11T05:50:55.244Z,66.22
2024-04-11T05:51:55.161Z,65.92
2024-04-11T05:52:55.123Z,65.99
2024-04-11T05:53:55.212Z,66.19
2024-04-11T05:54:55.110Z,65.89
2024-04-11T05:55:55.098Z,65.68
2024-04-11T05:56:55.159Z,66.09
2024-04-11T05:57:55.102Z,65.78
2024-04-11T05:58:55.080Z,65.89
2024-04-11T05:59:55.097Z,65.58
2024-04-11T06:00:55.076Z,65.68
2024-04-11T06:01:55.147Z,65.89
2024-04-11T06:02:55.057Z,65.37
2024-04-11T06:03:55.042Z,65.45
2024-04-11T06:04:55.017Z,65.34
2024-04-11T06:05:55.087Z,65.34
2024-04-11T06:06:55.004Z,65.34
2024-04-11T06:07:54.980Z,65.14
2024-04-11T06:08:55.003Z,65.14
2024-04-11T06:09:54.961Z,65.45
2024-04-11T06:10:55.071Z,65.04
2024-04-11T06:11:55.083Z,65.45
2024-04-11T06:12:54.964Z,65.14
2024-04-11T06:13:55.070Z,65.14
2024-04-11T06:14:54.958Z,65.25
2024-04-11T06:15:54.943Z,65.04
2024-04-11T06:16:54.907Z,65.34
2024-04-11T06:17:55.067Z,65.22
2024-04-11T06:18:54.947Z,65.34
2024-04-11T06:19:54.862Z,65.86
2024-04-11T06:20:55.847Z,65.65
2024-04-11T06:21:55.104Z,65.55
2024-04-11T06:22:54.831Z,65.92
2024-04-11T06:23:54.846Z,66.36
2024-04-11T06:24:54.820Z,67.08
2024-04-11T06:25:54.809Z,66.57
2024-04-11T06:26:54.919Z,69.49
2024-04-11T06:27:54.791Z,67.49
2024-04-11T06:28:54.769Z,69.32
2024-04-11T06:29:54.894Z,72.58
2024-04-11T06:30:54.755Z,73.54
2024-04-11T06:31:54.794Z,77.00
2024-04-11T06:32:54.833Z,74.90
2024-04-11T06:33:54.853Z,78.91
2024-04-11T06:34:54.809Z,79.73
2024-04-11T06:35:54.810Z,81.26
2024-04-11T06:36:54.689Z,82.12
2024-04-11T06:37:54.705Z,85.94
2024-04-11T06:38:54.736Z,84.30
2024-04-11T06:39:54.679Z,87.71
2024-04-11T06:40:54.664Z,89.29
2024-04-11T06:41:54.722Z,85.50
2024-04-11T06:42:54.640Z,88.62
2024-04-11T06:44:03.354Z,88.71
2024-04-11T06:44:54.638Z,93.73
2024-04-11T06:45:54.595Z,93.26
2024-04-11T06:46:54.635Z,93.06
2024-04-11T06:47:54.801Z,93.71
2024-04-11T06:48:54.675Z,93.62
2024-04-11T06:49:54.590Z,94.33
2024-04-11T06:50:54.763Z,94.64
2024-04-11T06:51:54.581Z,94.84
2024-04-11T06:52:54.546Z,93.62
2024-04-11T06:53:54.590Z,92.90
2024-04-11T06:54:54.577Z,93.20
2024-04-11T06:55:54.538Z,94.43
2024-04-11T06:56:54.654Z,96.28
2024-04-11T06:57:54.562Z,96.58
2024-04-11T06:58:54.517Z,97.40
2024-04-11T06:59:54.661Z,93.41
2024-04-11T07:00:54.603Z,95.56
2024-04-11T07:01:54.478Z,93.10
2024-04-11T07:02:54.595Z,94.33
2024-04-11T07:03:54.469Z,96.28
2024-04-11T07:04:54.418Z,96.17
2024-04-11T07:05:54.548Z,95.36
2024-04-11T07:06:54.399Z,95.36
2024-04-11T07:07:54.464Z,96.63
2024-04-11T07:08:54.453Z,96.01
2024-04-11T07:09:54.359Z,97.55
2024-04-11T07:10:54.618Z,96.22
2024-04-11T07:11:54.909Z,95.81
2024-04-11T07:12:54.388Z,96.83
2024-04-11T07:13:54.335Z,96.12
2024-04-11T07:14:54.434Z,97.75
2024-04-11T07:15:54.336Z,96.42
2024-04-11T07:16:54.379Z,95.40
2024-04-11T07:17:54.362Z,95.81
2024-04-11T07:18:55.132Z,97.34
2024-04-11T07:19:54.276Z,98.68
2024-04-11T07:20:54.293Z,99.09
2024-04-11T07:21:54.294Z,99.19
2024-04-11T07:22:54.320Z,98.88
2024-04-11T07:23:54.425Z,98.88
2024-04-11T07:24:54.235Z,99.60
2024-04-11T07:25:54.234Z,99.40
2024-04-11T07:28:15.933Z,98.16
2024-04-11T07:29:16.982Z,98.07
2024-04-11T07:30:16.899Z,98.37
2024-04-11T07:31:17.984Z,98.83
2024-04-11T07:32:16.930Z,98.52
2024-04-11T07:33:16.937Z,98.72
2024-04-11T07:34:16.854Z,99.85
2024-04-11T07:35:16.894Z,99.44
2024-04-11T07:36:16.876Z,99.99
2024-04-11T07:37:16.858Z,99.99
2024-04-11T07:38:16.871Z,99.99
2024-04-11T07:39:16.845Z,99.13
2024-04-11T07:40:16.816Z,99.85
2024-04-11T07:41:16.851Z,99.75
2024-04-11T07:42:16.833Z,99.95
2024-04-11T07:43:16.817Z,99.50
2024-04-11T07:44:17.059Z,99.50
2024-04-11T07:45:16.747Z,99.99
2024-04-11T07:46:16.803Z,99.99
2024-04-11T07:47:20.650Z,99.99
2024-04-11T07:48:19.760Z,99.99
2024-04-11T07:49:17.341Z,99.99
2024-04-11T07:50:16.935Z,99.99
2024-04-11T07:51:16.719Z,99.99
2024-04-11T07:52:17.298Z,99.45
2024-04-11T07:53:16.746Z,99.99
2024-04-11T07:54:23.104Z,99.99
2024-04-11T07:55:16.693Z,99.96
2024-04-11T07:56:16.697Z,99.99
2024-04-11T07:57:16.756Z,99.99
2024-04-11T07:58:17.637Z,99.76
2024-04-11T07:59:16.665Z,99.99
2024-04-11T08:00:16.636Z,99.99
2024-04-11T08:01:16.667Z,99.99
2024-04-11T08:02:16.909Z,99.99
2024-04-11T08:03:16.751Z,99.99
2024-04-11T08:04:17.220Z,99.99
2024-04-11T08:05:17.236Z,99.99
2024-04-11T08:06:16.857Z,99.99
2024-04-11T08:07:17.203Z,99.99
2024-04-11T08:08:16.566Z,99.99
2024-04-11T08:09:16.865Z,99.30
2024-04-11T08:10:17.166Z,99.91
2024-04-11T08:11:16.684Z,99.99
2024-04-11T08:12:16.652Z,98.90
2024-04-11T08:13:16.538Z,99.51
2024-04-11T08:14:16.499Z,99.51
2024-04-11T08:15:16.502Z,97.25
2024-04-11T08:16:16.547Z,98.58
2024-04-11T08:17:17.053Z,98.99
2024-04-11T08:18:16.732Z,99.20
2024-04-11T08:19:16.499Z,98.99
2024-04-11T08:20:17.699Z,98.99
2024-04-11T08:21:16.761Z,99.51
2024-04-11T08:22:16.904Z,99.20
2024-04-11T08:23:21.442Z,99.20
2024-04-11T08:24:16.569Z,98.79
2024-04-11T08:25:16.530Z,99.41
2024-04-11T08:26:16.367Z,98.49
2024-04-11T08:27:17.156Z,98.18
2024-04-11T08:28:17.163Z,99.30
2024-04-11T08:29:16.515Z,99.20
2024-04-11T08:30:16.446Z,99.77
2024-04-11T08:31:16.343Z,98.95
2024-04-11T08:32:16.564Z,98.85
2024-04-11T08:33:16.610Z,97.92
2024-04-11T08:34:16.347Z,98.24
2024-04-11T08:35:16.312Z,97.82
2024-04-11T08:36:16.306Z,96.59
2024-04-11T08:37:16.350Z,97.52
2024-04-11T08:38:16.478Z,97.31
2024-04-11T08:39:16.264Z,97.82
2024-04-11T08:40:16.306Z,97.31
2024-04-11T08:41:16.247Z,98.85
2024-04-11T08:42:16.202Z,99.11
2024-04-11T08:43:16.183Z,98.49
2024-04-11T08:44:16.212Z,98.29
2024-04-11T08:45:16.158Z,96.66
2024-04-11T08:46:16.148Z,96.75
2024-04-11T08:47:16.233Z,97.98
2024-04-11T08:48:16.204Z,98.96
2024-04-11T08:49:16.215Z,97.02
2024-04-11T08:50:16.349Z,96.41
2024-04-11T08:51:16.528Z,98.35
2024-04-11T08:52:16.171Z,98.45
2024-04-11T08:53:16.115Z,98.20
2024-04-11T08:54:16.107Z,98.50
2024-04-11T08:55:16.128Z,96.61
2024-04-11T08:56:16.086Z,98.20
2024-04-11T08:57:16.072Z,96.46
2024-04-11T08:58:16.037Z,95.07
2024-04-11T08:59:16.073Z,97.89
2024-04-11T09:00:16.053Z,95.95
2024-04-11T09:01:16.109Z,98.30
2024-04-11T09:02:16.018Z,97.28
2024-04-11T09:03:16.157Z,96.97
2024-04-11T09:04:16.003Z,97.03
2024-04-11T09:05:16.476Z,96.15
2024-04-11T09:06:15.989Z,95.60
2024-04-11T09:07:18.484Z,95.95
2024-04-11T09:08:15.932Z,96.05
2024-04-11T09:09:15.927Z,95.44
2024-04-11T09:10:15.914Z,94.32
2024-04-11T09:11:16.005Z,94.52
2024-04-11T09:12:15.938Z,92.37
2024-04-11T09:13:15.881Z,96.26
2024-04-11T09:14:15.883Z,95.95
2024-04-11T09:15:15.873Z,94.73
2024-04-11T09:16:15.964Z,95.75
2024-04-11T09:17:18.511Z,95.75
2024-04-11T09:18:15.862Z,96.77
2024-04-11T09:19:15.842Z,93.50
2024-04-11T09:20:15.811Z,94.32
2024-04-11T09:21:15.843Z,96.05
2024-04-11T09:22:15.781Z,93.80
2024-04-11T09:23:15.826Z,94.32
2024-04-11T09:24:15.768Z,92.78
2024-04-11T09:25:15.904Z,93.29
2024-04-11T09:26:15.807Z,94.01
2024-04-11T09:27:15.737Z,95.44
2024-04-11T09:28:15.756Z,95.75
2024-04-11T09:29:15.792Z,96.42
2024-04-11T09:30:15.756Z,94.11
2024-04-11T09:31:15.692Z,93.25
2024-04-11T09:32:15.720Z,95.90
2024-04-11T09:33:15.861Z,94.27
2024-04-11T09:34:15.841Z,95.65
2024-04-11T09:35:15.722Z,94.43
2024-04-11T09:36:15.679Z,93.10
2024-04-11T09:37:15.667Z,92.59
2024-04-11T09:38:15.643Z,93.92
2024-04-11T09:39:15.643Z,94.53
2024-04-11T09:40:15.657Z,91.16
2024-04-11T09:41:15.673Z,90.86
2024-04-11T09:42:15.618Z,91.98
2024-04-11T09:43:15.586Z,92.39
2024-04-11T09:44:15.581Z,92.90
2024-04-11T09:45:15.581Z,91.16
2024-04-11T09:46:15.556Z,93.26
2024-04-11T09:47:15.568Z,90.92
2024-04-11T09:48:15.613Z,90.31
2024-04-11T09:49:15.520Z,89.28
2024-04-11T09:50:15.543Z,91.18
2024-04-11T09:51:15.509Z,89.96
2024-04-11T09:52:15.506Z,90.53
2024-04-11T09:53:15.497Z,90.18
2024-04-11T09:54:15.522Z,89.63
2024-04-11T09:55:15.495Z,87.08
2024-04-11T09:56:15.440Z,87.65
2024-04-11T09:57:15.431Z,87.92
2024-04-11T09:58:15.429Z,85.68
2024-04-11T09:59:15.518Z,85.33
2024-04-11T10:00:15.533Z,85.06
2024-04-11T10:01:15.407Z,84.35
2024-04-11T10:02:15.405Z,85.47
2024-04-11T10:03:15.539Z,84.15
2024-04-11T10:04:15.428Z,86.39
2024-04-11T10:05:15.397Z,86.49
2024-04-11T10:06:15.611Z,88.12
2024-04-11T10:07:15.332Z,83.74
2024-04-11T10:08:15.327Z,86.83
2024-04-11T10:09:15.571Z,83.89
2024-04-11T10:10:15.323Z,85.61
2024-04-11T10:11:15.401Z,85.51
2024-04-11T10:12:15.406Z,86.59
2024-04-11T10:13:15.277Z,83.95
2024-04-11T10:14:15.272Z,84.66
2024-04-11T10:15:15.267Z,84.86
2024-04-11T10:16:15.277Z,82.82
2024-04-11T10:17:15.285Z,83.54
2024-04-11T10:18:15.572Z,85.58
2024-04-11T10:19:15.877Z,81.81
2024-04-11T10:20:15.192Z,84.76
2024-04-11T10:21:15.202Z,84.76
2024-04-11T10:22:16.014Z,84.35
2024-04-11T10:23:15.181Z,81.71
2024-04-11T10:24:15.224Z,84.70
2024-04-11T10:25:15.178Z,83.13
2024-04-11T10:26:15.152Z,83.68
2024-04-11T10:27:15.260Z,83.34
2024-04-11T10:28:15.151Z,85.47
2024-04-11T10:29:15.139Z,83.09
2024-04-11T10:30:15.139Z,82.07
2024-04-11T10:31:15.146Z,82.28
2024-04-11T10:32:15.124Z,81.73
2024-04-11T10:33:15.257Z,82.61
2024-04-11T10:34:15.114Z,83.28
2024-04-11T10:35:15.184Z,79.02
2024-04-11T10:36:15.050Z,80.13
2024-04-11T10:37:15.107Z,80.07
2024-04-11T10:38:15.055Z,78.75
2024-04-11T10:39:15.037Z,80.68
2024-04-11T10:40:15.038Z,78.91
2024-04-11T10:41:15.018Z,81.56
2024-04-11T10:42:15.158Z,81.11
2024-04-11T10:43:14.976Z,82.43
2024-04-11T10:44:14.982Z,80.66
2024-04-11T10:45:14.967Z,79.18
2024-04-11T10:46:14.975Z,77.97
2024-04-11T10:47:15.415Z,78.17
2024-04-11T10:48:14.979Z,80.30
2024-04-11T10:49:14.939Z,78.98
2024-04-11T10:50:14.909Z,77.56
2024-04-11T10:51:14.914Z,78.37
2024-04-11T10:52:14.929Z,78.17
2024-04-11T10:53:16.277Z,77.25
2024-04-11T10:54:14.893Z,76.95
2024-04-11T10:55:14.853Z,78.57
2024-04-11T10:56:16.037Z,79.08
2024-04-11T10:57:14.838Z,77.36
2024-04-11T10:58:15.207Z,78.06
2024-04-11T10:59:14.830Z,79.45
2024-04-11T11:00:14.811Z,78.46
2024-04-11T11:01:14.858Z,75.52
2024-04-11T11:02:14.825Z,75.82
2024-04-11T11:03:14.872Z,75.52
2024-04-11T11:04:14.793Z,75.79
2024-04-11T11:05:14.779Z,75.89
2024-04-11T11:06:14.781Z,74.37
2024-04-11T11:07:14.764Z,76.29
2024-04-11T11:08:14.784Z,75.38
2024-04-11T11:09:15.340Z,75.65
2024-04-11T11:10:14.804Z,74.10
2024-04-11T11:11:14.815Z,75.82
2024-04-11T11:12:14.713Z,76.29
2024-04-11T11:13:14.675Z,73.66
2024-04-11T11:14:14.680Z,72.75
2024-04-11T11:15:14.671Z,71.94
2024-04-11T11:16:14.804Z,73.56
2024-04-11T11:17:14.671Z,72.48
2024-04-11T11:18:14.801Z,73.69
2024-04-11T11:19:14.622Z,72.81
2024-04-11T11:20:14.654Z,73.63
2024-04-11T11:21:14.607Z,74.07
2024-04-11T11:22:14.589Z,73.86
2024-04-11T11:23:14.612Z,74.30
2024-04-11T11:24:14.599Z,75.69
2024-04-11T11:25:14.570Z,73.39
2024-04-11T11:26:14.561Z,75.42
2024-04-11T11:27:14.549Z,77.55
2024-04-11T11:28:14.539Z,74.77
2024-04-11T11:29:14.566Z,74.71
2024-04-11T11:30:14.638Z,74.71
2024-04-11T11:31:14.531Z,75.52
2024-04-11T11:32:14.494Z,75.89
2024-04-11T11:33:14.574Z,75.89
2024-04-11T11:34:14.612Z,75.62
2024-04-11T11:35:14.517Z,74.61
2024-04-11T11:36:14.492Z,74.30
2024-04-11T11:37:14.653Z,75.15
2024-04-11T11:38:14.433Z,76.13
2024-04-11T11:39:14.445Z,75.62
2024-04-11T11:40:14.447Z,76.43
2024-04-11T11:41:14.462Z,75.08
2024-04-11T11:42:14.397Z,74.48
2024-04-11T11:43:14.386Z,74.30
2024-04-11T11:44:14.388Z,75.01
2024-04-11T11:45:14.375Z,75.62
2024-04-11T11:46:14.366Z,76.03
2024-04-11T11:47:14.546Z,75.49
2024-04-11T11:48:15.165Z,74.88
2024-04-11T11:49:14.346Z,73.97
2024-04-11T11:50:14.334Z,73.63
2024-04-11T11:51:14.338Z,73.39
2024-04-11T11:52:14.318Z,73.02
2024-04-11T11:53:14.325Z,72.78
2024-04-11T11:54:14.294Z,71.26
2024-04-11T11:55:14.485Z,70.62
2024-04-11T11:56:14.291Z,69.18
2024-04-11T11:57:14.261Z,68.67
2024-04-11T11:58:14.252Z,69.48
2024-04-11T11:59:14.284Z,68.47
2024-04-11T12:00:14.256Z,68.67
2024-04-11T12:01:14.267Z,70.53
2024-04-11T12:02:14.234Z,69.18
2024-04-11T12:03:21.563Z,69.82
2024-04-11T12:04:14.258Z,69.92
2024-04-11T12:05:14.290Z,69.65
2024-04-11T12:06:14.181Z,71.47
2024-04-11T12:07:14.162Z,70.36
2024-04-11T12:08:14.164Z,70.56
2024-04-11T12:09:14.182Z,71.37
2024-04-11T12:10:14.603Z,71.17
2024-04-11T12:11:14.190Z,70.05
2024-04-11T12:12:14.295Z,70.36
2024-04-11T12:13:14.109Z,72.38
2024-04-11T12:14:14.087Z,71.44
2024-04-11T12:15:14.242Z,70.25
2024-04-11T12:16:14.125Z,69.98
2024-04-11T12:17:14.082Z,70.89
2024-04-11T12:18:14.158Z,70.49
2024-04-11T12:19:14.057Z,71.09
2024-04-11T12:20:14.061Z,71.53
2024-04-11T12:21:14.035Z,71.44
2024-04-11T12:22:14.050Z,72.14
2024-04-11T12:23:14.048Z,71.60
2024-04-11T12:24:14.023Z,71.80
2024-04-11T12:25:14.037Z,70.89
2024-04-11T12:26:14.005Z,72.04
2024-04-11T12:27:13.980Z,72.48
2024-04-11T12:28:13.967Z,73.02
2024-04-11T12:29:14.000Z,74.33
2024-04-11T12:30:13.936Z,74.13
2024-04-11T12:31:13.995Z,73.80
2024-04-11T12:32:14.001Z,74.30
2024-04-11T12:33:14.099Z,73.80
2024-04-11T12:34:13.947Z,74.57
2024-04-11T12:35:13.928Z,72.95
2024-04-11T12:36:13.898Z,72.01
2024-04-11T12:37:13.884Z,71.70
2024-04-11T12:38:13.863Z,72.04
2024-04-11T12:39:14.724Z,72.28
2024-04-11T12:40:15.686Z,72.99
2024-04-11T12:41:13.852Z,74.00
2024-04-11T12:42:13.823Z,73.32
2024-04-11T12:43:15.395Z,74.64
2024-04-11T12:44:13.906Z,74.44
2024-04-11T12:45:13.869Z,74.98
2024-04-11T12:46:13.814Z,75.35
2024-04-11T12:47:13.825Z,74.33
2024-04-11T12:48:13.945Z,74.37
2024-04-11T12:49:13.786Z,75.22
2024-04-11T12:50:14.341Z,75.93
2024-04-11T12:51:13.796Z,75.96
2024-04-11T12:52:13.735Z,76.37
2024-04-11T12:53:13.766Z,77.34
2024-04-11T12:54:13.727Z,76.23